Time;durP1;ratioP1;P1;durP2;ratioP2;P2;SDS_P1;SDS_P2;PMS_P1;PMS_P2;Temp;Humidity;BMP_temperature;BMP_pressure;BME280_temperature;BME280_humidity;BME280_pressure;Samples;Min_cycle;Max_cycle;Signal;HPM_P1;HPM_P2
2021/10/17 00:00:32;;;;;;;35.10;16.62;;;;;;;4.35;100.00;100434.88;1787724;80;21043;-83
2021/10/17 00:03:00;;;;;;;36.77;19.23;;;;;;;4.38;100.00;100434.40;1794079;80;21266;-82
2021/10/17 00:05:32;;;;;;;21.90;9.95;;;;;;;4.41;100.00;100425.69;1794109;80;21049;-83
2021/10/17 00:07:59;;;;;;;35.98;19.27;;;;;;;4.45;100.00;100427.84;1759070;80;21026;-83
2021/10/17 00:10:31;;;;;;;37.53;17.52;;;;;;;4.47;100.00;100420.88;1776963;80;21006;-82
2021/10/17 00:13:00;;;;;;;24.57;12.80;;;;;;;4.50;100.00;100420.84;1818786;78;21056;-83
2021/10/17 00:15:28;;;;;;;28.87;15.03;;;;;;;4.53;100.00;100417.80;1748821;82;21126;-82
2021/10/17 00:17:54;;;;;;;32.58;16.50;;;;;;;4.56;100.00;100419.50;1818599;78;21028;-81
2021/10/17 00:20:22;;;;;;;31.93;17.10;;;;;;;4.61;100.00;100421.63;1806671;78;21053;-79
2021/10/17 00:22:49;;;;;;;36.65;18.60;;;;;;;4.66;100.00;100421.59;1782441;80;21601;-79
2021/10/17 00:25:16;;;;;;;35.70;19.17;;;;;;;4.70;100.00;100421.56;1788579;80;21057;-78
2021/10/17 00:27:42;;;;;;;39.83;19.90;;;;;;;4.73;100.00;100420.66;1787402;79;21136;-77
2021/10/17 00:30:12;;;;;;;34.67;18.77;;;;;;;4.76;100.00;100424.13;1785639;80;21046;-77
2021/10/17 00:32:39;;;;;;;34.58;19.17;;;;;;;4.78;100.00;100427.56;1785842;80;21411;-77
2021/10/17 00:35:07;;;;;;;31.17;17.85;;;;;;;4.81;100.00;100428.86;1785768;80;21037;-77
2021/10/17 00:37:34;;;;;;;33.38;18.32;;;;;;;4.84;100.00;100419.69;1785887;80;21009;-78
2021/10/17 00:40:03;;;;;;;33.78;18.35;;;;;;;4.89;100.00;100426.62;1787316;80;21144;-76
2021/10/17 00:42:30;;;;;;;33.70;18.92;;;;;;;4.93;100.00;100424.41;1788741;80;20974;-80
2021/10/17 00:45:00;;;;;;;38.92;18.95;;;;;;;4.97;100.00;100422.17;1790010;80;20887;-78
2021/10/17 00:47:27;;;;;;;33.80;17.95;;;;;;;5.01;100.00;100423.88;1788819;80;20986;-79
2021/10/17 00:49:54;;;;;;;34.03;18.60;;;;;;;5.03;100.00;100425.59;1786864;80;21633;-79
2021/10/17 00:52:20;;;;;;;33.42;18.32;;;;;;;5.06;100.00;100422.09;1785775;80;21555;-79
2021/10/17 00:54:47;;;;;;;39.33;19.77;;;;;;;5.07;100.00;100419.92;1754847;80;22008;-76
2021/10/17 00:57:14;;;;;;;36.40;18.73;;;;;;;5.11;100.00;100422.04;1785451;80;21045;-78
2021/10/17 00:59:41;;;;;;;38.08;18.48;;;;;;;5.14;100.00;100421.58;1785566;80;21061;-77
2021/10/17 01:02:08;;;;;;;37.30;17.77;;;;;;;5.17;100.00;100420.23;1785405;80;21060;-78
2021/10/17 01:04:37;;;;;;;32.45;16.73;;;;;;;5.21;100.00;100419.33;1785050;80;21139;-77
2021/10/17 01:07:06;;;;;;;34.58;17.25;;;;;;;5.24;100.00;100421.93;1784040;80;21481;-76
2021/10/17 01:09:34;;;;;;;33.92;18.10;;;;;;;5.30;100.00;100420.13;1788772;78;20993;-85
2021/10/17 01:12:02;;;;;;;35.73;18.62;;;;;;;5.36;100.00;100422.65;1795038;80;21028;-85
2021/10/17 01:14:30;;;;;;;33.63;18.12;;;;;;;5.38;100.00;100420.89;1794943;80;21017;-85
2021/10/17 01:16:57;;;;;;;33.25;19.17;;;;;;;5.40;100.00;100421.74;1791502;80;21208;-85
2021/10/17 01:19:23;;;;;;;33.10;16.73;;;;;;;5.41;100.00;100420.88;1759241;80;21040;-84
2021/10/17 01:21:52;;;;;;;33.83;17.42;;;;;;;5.43;100.00;100422.59;1758135;81;21006;-83
2021/10/17 01:24:19;;;;;;;32.15;19.67;;;;;;;5.47;100.00;100423.40;1760789;79;21025;-84
2021/10/17 01:26:46;;;;;;;36.75;18.27;;;;;;;5.48;100.00;100419.92;1762924;78;20982;-83
2021/10/17 01:29:13;;;;;;;25.50;14.60;;;;;;;5.50;100.00;100421.19;1763057;78;21098;-80
2021/10/17 01:31:50;;;;;;;26.40;13.28;;;;;;;5.51;100.00;100419.87;1763093;78;20998;-86
2021/10/17 01:34:18;;;;;;;27.80;16.12;;;;;;;5.52;100.00;100420.31;1762966;78;21034;-86
2021/10/17 01:36:44;;;;;;;29.30;16.37;;;;;;;5.52;100.00;100419.02;1763249;79;20943;-87
2021/10/17 01:39:12;;;;;;;17.45;10.18;;;;;;;5.51;100.00;100410.73;1762896;79;21014;-85
2021/10/17 01:41:40;;;;;;;32.53;17.45;;;;;;;5.51;100.00;100418.57;1763103;80;21142;-85
2021/10/17 01:44:10;;;;;;;34.58;17.73;;;;;;;5.49;100.00;100417.72;1762635;79;21030;-84
2021/10/17 01:46:37;;;;;;;33.37;18.27;;;;;;;5.46;100.00;100416.46;1760385;81;21034;-78
2021/10/17 01:49:05;;;;;;;31.27;16.15;;;;;;;5.43;100.00;100415.20;1757913;81;21651;-78
2021/10/17 01:51:33;;;;;;;28.42;16.42;;;;;;;5.40;100.00;100416.52;1761470;80;21061;-78
2021/10/17 01:54:03;;;;;;;35.45;17.52;;;;;;;5.35;100.00;100420.94;1793245;80;21186;-80
2021/10/17 01:56:32;;;;;;;33.55;16.12;;;;;;;5.29;100.00;100418.38;1793540;78;21037;-80
2021/10/17 02:02:06;;;;;;;32.08;15.38;;;;;;;5.16;100.00;100422.44;1796312;79;27774;-80
2021/10/17 02:04:34;;;;;;;29.57;16.65;;;;;;;5.04;100.00;100421.27;1756683;81;21097;-80
2021/10/17 02:07:01;;;;;;;28.87;17.10;;;;;;;5.01;100.00;100429.10;1753470;81;21110;-85
2021/10/17 02:09:28;;;;;;;33.35;16.90;;;;;;;4.96;100.00;100425.68;1751214;81;21018;-87
2021/10/17 02:11:56;;;;;;;29.80;16.45;;;;;;;4.90;100.00;100426.61;1749212;82;21561;-89
2021/10/17 02:14:23;;;;;;;38.10;17.05;;;;;;;4.84;100.00;100422.30;1744954;82;21179;-89
2021/10/17 02:16:50;;;;;;;20.95;10.78;;;;;;;4.81;100.00;100427.55;1719319;83;21477;-89
2021/10/17 02:19:17;;;;;;;34.92;16.95;;;;;;;4.79;100.00;100429.75;1719084;83;22090;-87
2021/10/17 02:21:44;;;;;;;35.10;17.40;;;;;;;4.79;100.00;100429.30;1719203;83;22198;-85
2021/10/17 02:24:12;;;;;;;37.42;16.55;;;;;;;4.78;100.00;100430.61;1718835;83;21037;-86
2021/10/17 02:26:40;;;;;;;30.72;17.00;;;;;;;4.77;100.00;100433.67;1718890;83;21001;-85
2021/10/17 02:29:11;;;;;;;;;;;;;;;4.79;100.00;100433.67;1720258;83;21085;-82
2021/10/17 02:31:39;;;;;;;33.35;16.77;;;;;;;4.82;100.00;100437.09;1716934;83;21952;-83
2021/10/17 02:34:06;;;;;;;35.00;18.15;;;;;;;4.84;100.00;100431.43;1718544;83;20989;-84
2021/10/17 02:36:34;;;;;;;29.92;17.60;;;;;;;4.88;100.00;100437.50;1718691;83;21054;-81
2021/10/17 02:39:02;;;;;;;37.35;17.50;;;;;;;4.91;100.00;100439.22;1718759;83;21045;-85
2021/10/17 02:41:28;;;;;;;33.15;17.17;;;;;;;4.94;100.00;100441.79;1725521;81;21033;-83
2021/10/17 02:43:54;;;;;;;28.57;16.62;;;;;;;4.98;100.00;100440.89;1727032;83;21868;-84
2021/10/17 02:46:23;;;;;;;34.53;16.62;;;;;;;5.01;100.00;100434.32;1726487;82;21059;-83
2021/10/17 02:48:50;;;;;;;22.35;11.78;;;;;;;5.05;100.00;100436.89;1726976;83;21111;-82
2021/10/17 02:51:16;;;;;;;23.98;13.72;;;;;;;5.10;100.00;100435.98;1722361;82;21128;-83
2021/10/17 02:53:43;;;;;;;15.03;9.00;;;;;;;5.14;100.00;100441.16;1722325;80;21109;-82
2021/10/17 02:56:10;;;;;;;27.40;15.50;;;;;;;5.16;100.00;100435.49;1725442;83;21124;-83
2021/10/17 02:58:36;;;;;;;31.73;15.63;;;;;;;5.20;100.00;100437.20;1724826;83;21596;-85
2021/10/17 03:01:04;;;;;;;19.12;9.70;;;;;;;5.22;100.00;100438.05;1718763;81;21125;-85
2021/10/17 03:03:30;;;;;;;23.18;11.12;;;;;;;5.25;100.00;100438.01;1708116;84;21116;-82
2021/10/17 03:05:56;;;;;;;28.55;13.62;;;;;;;5.29;100.00;100437.55;1713134;83;21501;-78
2021/10/17 03:08:24;;;;;;;29.00;15.80;;;;;;;5.32;100.00;100437.95;1713760;83;21104;-78
2021/10/17 03:10:51;;;;;;;28.70;15.40;;;;;;;5.34;100.00;100438.81;1713594;82;21050;-78
2021/10/17 03:13:18;;;;;;;30.97;16.15;;;;;;;5.35;100.00;100440.08;1713265;82;21077;-80
2021/10/17 03:15:45;;;;;;;30.55;16.42;;;;;;;5.34;100.00;100446.64;1713483;83;21565;-78
2021/10/17 03:18:14;;;;;;;30.97;16.17;;;;;;;5.20;100.00;100418.92;1713960;82;20900;-85
2021/10/17 03:20:40;;;;;;;32.60;16.10;;;;;;;5.32;100.00;100444.48;1713804;81;21207;-84
2021/10/17 03:23:08;;;;;;;31.40;17.30;;;;;;;5.34;100.00;100445.34;1713811;82;21584;-83
2021/10/17 03:25:36;;;;;;;31.12;16.42;;;;;;;5.36;100.00;100446.16;1713468;83;21125;-80
2021/10/17 03:28:04;;;;;;;31.48;16.32;;;;;;;5.37;100.00;100450.52;1713684;83;22304;-84
2021/10/17 03:30:31;;;;;;;25.62;15.63;;;;;;;5.40;100.00;100446.55;1713507;83;21060;-84
2021/10/17 03:33:00;;;;;;;24.30;13.53;;;;;;;5.41;100.00;100447.00;1713777;82;21025;-83
2021/10/17 03:35:26;;;;;;;22.70;12.88;;;;;;;5.42;100.00;100445.66;1713728;82;21070;-83
2021/10/17 03:37:54;;;;;;;29.95;15.15;;;;;;;5.45;100.00;100446.06;1713679;82;21061;-84
2021/10/17 03:40:21;;;;;;;20.43;12.05;;;;;;;5.46;100.00;100445.20;1713550;83;21516;-84
2021/10/17 03:42:47;;;;;;;28.55;16.17;;;;;;;5.46;100.00;100443.44;1713870;82;20994;-82
2021/10/17 03:45:14;;;;;;;26.80;14.35;;;;;;;5.48;100.00;100438.20;1713475;82;21980;-81
2021/10/17 03:47:40;;;;;;;30.68;15.65;;;;;;;5.49;100.00;100442.53;1713516;82;21042;-81
2021/10/17 03:50:09;;;;;;;25.48;15.20;;;;;;;5.48;100.00;100439.52;1713381;82;21053;-81
2021/10/17 03:52:35;;;;;;;28.52;15.23;;;;;;;5.47;100.00;100437.77;1712883;82;21029;-82
2021/10/17 03:55:05;;;;;;;27.75;15.03;;;;;;;5.45;100.00;100447.36;1710262;83;21684;-81
2021/10/17 03:57:31;;;;;;;29.00;14.73;;;;;;;5.44;100.00;100443.03;1677529;85;21113;-81
2021/10/17 03:59:58;;;;;;;26.02;15.80;;;;;;;5.48;100.00;100446.49;1677053;85;21075;-81
2021/10/17 04:02:27;;;;;;;34.43;15.65;;;;;;;5.52;100.00;100449.47;1683373;83;21521;-84
2021/10/17 04:04:53;;;;;;;30.82;16.77;;;;;;;5.55;100.00;100449.45;1684587;85;21100;-83
2021/10/17 04:07:21;;;;;;;28.30;15.88;;;;;;;5.58;100.00;100447.66;1685102;84;21053;-84
2021/10/17 04:09:48;;;;;;;35.58;16.42;;;;;;;5.62;100.00;100450.66;1691608;83;21085;-84
2021/10/17 04:12:16;;;;;;;29.05;15.98;;;;;;;5.64;100.00;100447.59;1721338;82;21612;-82
2021/10/17 04:14:44;;;;;;;32.05;15.40;;;;;;;5.68;100.00;100448.41;1719906;83;21070;-81
2021/10/17 04:17:10;;;;;;;27.37;14.43;;;;;;;5.71;100.00;100446.23;1721669;82;21085;-84
2021/10/17 04:19:38;;;;;;;29.50;14.98;;;;;;;5.74;100.00;100456.19;1720536;83;21120;-83
2021/10/17 04:22:05;;;;;;;28.55;15.78;;;;;;;5.77;100.00;100453.97;1713847;83;21067;-83
2021/10/17 04:24:31;;;;;;;18.48;9.30;;;;;;;5.79;100.00;100453.06;1713846;83;21478;-84
2021/10/17 04:26:58;;;;;;;27.20;13.38;;;;;;;5.83;100.00;100453.91;1713718;83;21026;-84
2021/10/17 04:29:25;;;;;;;22.52;10.90;;;;;;;5.86;100.00;100458.64;1714008;83;21096;-85
2021/10/17 04:31:52;;;;;;;29.37;15.03;;;;;;;5.88;100.00;100454.70;1714452;82;20985;-83
2021/10/17 04:34:18;;;;;;;16.93;8.93;;;;;;;5.92;100.00;100452.48;1713877;83;21147;-82
2021/10/17 04:36:45;;;;;;;21.73;11.25;;;;;;;5.95;100.00;100453.77;1720065;83;22088;-79
2021/10/17 04:39:14;;;;;;;24.95;12.82;;;;;;;5.99;100.00;100456.78;1709519;83;21511;-82
2021/10/17 04:41:40;;;;;;;28.12;14.07;;;;;;;6.01;100.00;100455.02;1719854;83;21363;-83
2021/10/17 04:44:07;;;;;;;30.52;15.05;;;;;;;6.03;100.00;100455.86;1719595;82;21547;-79
2021/10/17 04:46:33;;;;;;;27.58;14.78;;;;;;;6.05;100.00;100463.24;1718881;83;21094;-78
2021/10/17 04:49:00;;;;;;;27.73;15.95;;;;;;;6.05;100.00;100461.94;1684338;85;21097;-82
2021/10/17 04:51:26;;;;;;;24.30;14.28;;;;;;;6.04;100.00;100460.19;1719825;82;21062;-85
2021/10/17 04:53:55;;;;;;;26.62;14.95;;;;;;;6.03;100.00;100463.70;1718825;82;21069;-79
2021/10/17 04:56:25;;;;;;;32.03;15.58;;;;;;;6.04;100.00;100465.42;1713529;83;21073;-78
2021/10/17 04:58:53;;;;;;;29.98;15.80;;;;;;;6.05;100.00;100463.24;1719423;83;21089;-79
2021/10/17 05:01:20;;;;;;;26.50;13.40;;;;;;;6.07;100.00;100468.02;1714281;83;21085;-78
2021/10/17 05:03:47;;;;;;;27.60;14.85;;;;;;;6.11;100.00;100471.44;1677007;85;22202;-84
2021/10/17 05:06:14;;;;;;;23.05;12.20;;;;;;;6.16;100.00;100472.69;1649214;85;21069;-82
2021/10/17 05:08:42;;;;;;;21.30;8.85;;;;;;;6.19;100.00;100472.22;1658116;85;21109;-79
2021/10/17 05:11:10;;;;;;;26.17;11.15;;;;;;;6.23;100.00;100474.33;1713471;83;21056;-85
2021/10/17 05:13:37;;;;;;;28.67;11.20;;;;;;;6.28;100.00;100478.63;1713138;82;21560;-80
2021/10/17 05:16:05;;;;;;;21.05;10.63;;;;;;;6.35;100.00;100474.17;1712467;83;21098;-80
2021/10/17 05:18:31;;;;;;;26.80;14.50;;;;;;;6.43;100.00;100472.30;1712523;82;21093;-82
2021/10/17 05:21:00;;;;;;;30.32;14.05;;;;;;;6.55;100.00;100480.41;1712315;83;21086;-83
2021/10/17 05:23:26;;;;;;;29.40;14.53;;;;;;;6.64;100.00;100475.48;1677558;84;21810;-82
2021/10/17 05:25:53;;;;;;;25.48;13.50;;;;;;;6.80;100.00;100480.89;1679599;85;21048;-83
2021/10/17 05:28:21;;;;;;;28.05;15.00;;;;;;;6.97;100.00;100477.13;1681913;85;21021;-82
2021/10/17 05:30:51;;;;;;;25.00;14.30;;;;;;;7.12;100.00;100476.43;1712857;83;20967;-83
2021/10/17 05:33:18;;;;;;;25.48;14.18;;;;;;;7.25;100.00;100473.16;1713163;83;21047;-82
2021/10/17 05:35:45;;;;;;;28.42;14.18;;;;;;;7.37;100.00;100483.02;1678779;85;21097;-82
2021/10/17 05:38:12;;;;;;;29.00;15.00;;;;;;;7.49;100.00;100480.16;1679201;85;21053;-83
2021/10/17 05:40:39;;;;;;;27.42;14.15;;;;;;;7.75;100.00;100481.84;1710102;83;21500;-83
2021/10/17 05:43:06;;;;;;;25.40;13.48;;;;;;;8.01;100.00;100484.37;1672066;84;21116;-82
2021/10/17 05:45:35;;;;;;;27.65;14.55;;;;;;;8.17;100.00;100483.61;1710250;82;21033;-82
2021/10/17 05:48:03;;;;;;;28.15;13.83;;;;;;;8.29;100.00;100483.33;1700611;82;21119;-83
2021/10/17 05:50:32;;;;;;;25.82;13.60;;;;;;;8.48;100.00;100486.43;1712707;82;22261;-82
2021/10/17 05:53:00;;;;;;;24.72;13.53;;;;;;;8.65;100.00;100482.55;1713439;82;21133;-81
2021/10/17 05:55:27;;;;;;;27.55;14.18;;;;;;;8.78;98.64;100480.05;1674819;84;21022;-83
2021/10/17 05:57:53;;;;;;;27.58;14.30;;;;;;;8.95;97.04;100484.89;1703135;83;21026;-82
2021/10/17 06:00:21;;;;;;;29.60;13.88;;;;;;;9.07;96.44;100477.17;1713242;83;21108;-82
2021/10/17 06:02:50;;;;;;;25.12;13.85;;;;;;;9.26;95.20;100489.39;1723022;82;21102;-81
2021/10/17 06:05:19;;;;;;;26.27;13.00;;;;;;;9.76;94.22;100484.08;1726557;82;21061;-82
2021/10/17 06:07:46;;;;;;;24.15;12.60;;;;;;;10.47;92.42;100490.80;1727265;81;21555;-82
2021/10/17 06:10:13;;;;;;;20.50;12.05;;;;;;;11.32;89.95;100489.38;1728661;80;20994;-83
2021/10/17 06:12:41;;;;;;;20.80;12.07;;;;;;;12.18;85.03;100491.11;1725526;81;21029;-85
2021/10/17 06:15:10;;;;;;;25.35;12.03;;;;;;;12.92;80.95;100476.78;1727144;83;21010;-86
2021/10/17 06:17:36;;;;;;;20.88;12.60;;;;;;;13.58;76.38;100488.10;1726715;83;21017;-84
2021/10/17 06:20:05;;;;;;;19.40;11.33;;;;;;;14.25;73.58;100487.31;1727207;82;21025;-84
2021/10/17 06:22:34;;;;;;;21.75;11.60;;;;;;;14.86;70.75;100484.42;1723665;82;21033;-86
2021/10/17 06:25:02;;;;;;;20.55;11.48;;;;;;;15.44;66.73;100483.75;1701487;83;21178;-83
2021/10/17 06:27:29;;;;;;;18.82;10.98;;;;;;;15.98;64.78;100483.12;1725399;83;21005;-84
2021/10/17 06:29:56;;;;;;;21.82;11.80;;;;;;;16.49;61.22;100477.20;1718629;83;21468;-83
2021/10/17 06:32:24;;;;;;;18.95;10.35;;;;;;;16.89;59.18;100478.98;1722688;83;21041;-84
2021/10/17 06:34:53;;;;;;;18.03;10.10;;;;;;;17.38;57.92;100479.22;1724771;83;21005;-83
2021/10/17 06:37:19;;;;;;;16.75;9.38;;;;;;;17.74;56.65;100474.81;1726732;81;21941;-85
2021/10/17 06:39:46;;;;;;;16.75;9.45;;;;;;;18.05;54.99;100476.92;1726839;83;21021;-84
2021/10/17 06:42:14;;;;;;;18.65;9.70;;;;;;;18.36;52.37;100479.00;1726860;82;21501;-81
2021/10/17 06:44:54;;;;;;;17.70;9.90;;;;;;;18.68;50.69;100478.70;1728547;82;21046;-82
2021/10/17 06:47:20;;;;;;;19.40;10.08;;;;;;;19.02;50.27;100471.55;1729632;81;20997;-85
2021/10/17 06:49:47;;;;;;;15.72;10.03;;;;;;;19.35;49.25;100472.04;1710281;82;21604;-85
2021/10/17 06:52:14;;;;;;;21.52;9.45;;;;;;;19.51;46.66;100470.06;1730813;80;21101;-85
2021/10/17 06:54:40;;;;;;;17.62;9.53;;;;;;;19.78;44.81;100471.30;1729894;80;20920;-78
2021/10/17 06:57:07;;;;;;;13.08;8.33;;;;;;;19.97;43.85;100471.34;1729573;80;21048;-84
2021/10/17 06:59:35;;;;;;;15.48;9.25;;;;;;;19.98;42.78;100481.08;1727292;83;21814;-86
2021/10/17 07:02:01;;;;;;;17.82;10.10;;;;;;;20.13;42.22;100471.98;1722378;83;21096;-87
2021/10/17 07:04:29;;;;;;;17.12;9.95;;;;;;;20.33;42.20;100468.70;1706583;83;21010;-86
2021/10/17 07:06:56;;;;;;;19.25;10.32;;;;;;;20.52;41.85;100470.91;1705893;83;21583;-86
2021/10/17 07:09:24;;;;;;;15.75;9.28;;;;;;;20.78;41.91;100463.30;1713382;83;21067;-84
2021/10/17 07:11:57;;;;;;;19.87;10.48;;;;;;;21.12;40.43;100465.15;1713832;82;21022;-85
2021/10/17 07:14:27;;;;;;;15.15;9.90;;;;;;;21.33;39.58;100469.34;1713323;82;21530;-85
2021/10/17 07:17:08;;;;;;;;;;;;;;;21.53;39.58;100469.19;1712316;82;21591;-85
2021/10/17 07:19:35;;;;;;;13.50;8.10;;;;;;;21.96;37.87;100469.82;1708361;83;20144;-88
2021/10/17 07:22:03;;;;;;;16.87;9.43;;;;;;;22.07;37.72;100470.81;1711023;83;21207;-87
2021/10/17 07:24:31;;;;;;;16.95;9.10;;;;;;;22.12;37.22;100472.14;1712663;82;21078;-85
2021/10/17 07:26:59;;;;;;;17.07;9.05;;;;;;;22.20;37.12;100473.73;1712572;82;21814;-83
2021/10/17 07:29:27;;;;;;;14.75;8.43;;;;;;;22.32;36.82;100479.12;1712996;83;21572;-83
2021/10/17 07:31:54;;;;;;;16.32;9.28;;;;;;;22.34;35.60;100476.67;1678866;85;20997;-85
2021/10/17 07:34:21;;;;;;;12.60;8.68;;;;;;;22.29;36.35;100477.54;1679180;85;21079;-84
2021/10/17 07:36:48;;;;;;;13.30;7.60;;;;;;;22.36;36.27;100472.04;1713970;82;21055;-85
2021/10/17 07:39:16;;;;;;;17.07;7.95;;;;;;;22.52;34.68;100468.09;1712263;82;21801;-85
2021/10/17 07:41:50;;;;;;;14.38;6.95;;;;;;;22.73;35.11;100471.71;1713754;82;21643;-84
2021/10/17 07:44:18;;;;;;;15.72;8.43;;;;;;;23.00;34.12;100475.78;1713565;82;21559;-84
2021/10/17 07:46:58;;;;;;;11.85;6.97;;;;;;;23.10;34.41;100471.36;1702982;82;21052;-86
2021/10/17 07:49:28;;;;;;;11.05;6.03;;;;;;;23.32;33.13;100464.16;1706707;82;21077;-85
2021/10/17 07:51:55;;;;;;;9.35;5.42;;;;;;;23.23;32.93;100469.31;1709264;82;21908;-84
2021/10/17 07:54:21;;;;;;;10.40;5.35;;;;;;;23.21;33.32;100471.30;1713715;83;21584;-86
2021/10/17 07:56:49;;;;;;;8.68;5.28;;;;;;;23.28;33.34;100470.77;1711699;83;21033;-88
2021/10/17 07:59:15;;;;;;;11.93;6.10;;;;;;;23.32;33.81;100465.00;1708245;82;21140;-87
2021/10/17 08:01:44;;;;;;;13.20;6.50;;;;;;;23.62;32.74;100468.22;1707342;83;21070;-87
2021/10/17 08:04:13;;;;;;;13.78;5.83;;;;;;;23.96;31.45;100470.70;1718626;83;21442;-87
2021/10/17 08:06:42;;;;;;;10.78;4.97;;;;;;;23.92;32.00;100467.92;1717921;82;21101;-87
2021/10/17 08:09:08;;;;;;;7.97;4.20;;;;;;;24.13;30.90;100463.82;1701989;83;21104;-85
2021/10/17 08:11:35;;;;;;;9.45;4.00;;;;;;;24.03;30.44;100470.52;1708305;83;21154;-86
2021/10/17 08:14:04;;;;;;;10.55;4.60;;;;;;;24.07;30.82;100461.19;1654385;86;21092;-88
2021/10/17 08:16:33;;;;;;;8.45;4.55;;;;;;;24.22;29.98;100460.81;1719127;83;21253;-85
2021/10/17 08:19:00;;;;;;;10.95;4.47;;;;;;;24.23;30.89;100459.84;1699399;82;20994;-86
2021/10/17 08:21:27;;;;;;;8.93;4.53;;;;;;;24.30;29.61;100459.64;1716345;83;20972;-87
2021/10/17 08:24:01;;;;;;;10.03;4.95;;;;;;;24.33;30.21;100458.02;1716667;83;20997;-85
2021/10/17 08:26:32;;;;;;;8.95;4.17;;;;;;;24.46;29.67;100450.55;1719210;83;21050;-87
2021/10/17 08:29:00;;;;;;;10.32;4.28;;;;;;;24.69;29.42;100451.17;1718808;83;21066;-86
2021/10/17 08:31:27;;;;;;;9.38;4.80;;;;;;;24.94;28.69;100456.14;1690945;83;21034;-86
2021/10/17 08:33:53;;;;;;;9.43;4.33;;;;;;;24.86;28.40;100455.00;1713536;83;21683;-85
2021/10/17 08:36:21;;;;;;;10.00;4.33;;;;;;;24.40;28.86;100455.13;1717449;82;21640;-86
2021/10/17 08:38:48;;;;;;;8.63;4.40;;;;;;;23.71;29.68;100453.64;1695554;83;21109;-88
2021/10/17 08:41:15;;;;;;;12.15;4.12;;;;;;;23.44;30.56;100465.78;1702858;83;21257;-88
2021/10/17 08:43:47;;;;;;;11.43;4.90;;;;;;;23.51;31.48;100461.58;1706079;83;20982;-87
2021/10/17 08:46:21;;;;;;;10.03;4.58;;;;;;;23.91;30.44;100460.84;1703666;82;21009;-87
2021/10/17 08:48:55;;;;;;;10.80;4.97;;;;;;;24.22;29.76;100460.81;1712830;83;21034;-85
2021/10/17 08:51:24;;;;;;;11.65;5.58;;;;;;;24.30;29.93;100455.61;1708046;82;21102;-88
2021/10/17 08:53:52;;;;;;;11.55;4.78;;;;;;;24.61;29.27;100457.74;1711159;83;21457;-85
2021/10/17 08:56:20;;;;;;;11.68;5.50;;;;;;;24.49;29.00;100466.44;1714581;82;21496;-88
2021/10/17 08:58:49;;;;;;;10.00;4.95;;;;;;;24.28;28.83;100466.50;1718989;82;21059;-88
2021/10/17 09:01:20;;;;;;;10.08;4.70;;;;;;;24.08;29.47;100466.92;1716449;83;21100;-86
2021/10/17 09:03:58;;;;;;;12.65;4.83;;;;;;;24.35;28.60;100464.11;1709488;82;21049;-86
2021/10/17 09:06:37;;;;;;;9.20;4.30;;;;;;;24.61;28.48;100466.32;1711363;83;21081;-87
2021/10/17 09:09:20;;;;;;;8.88;4.53;;;;;;;24.75;27.96;100460.52;1717328;82;21094;-87
2021/10/17 09:11:53;;;;;;;13.93;4.83;;;;;;;24.29;28.84;100459.27;1720810;82;21031;-89
2021/10/17 09:14:25;;;;;;;7.42;3.80;;;;;;;23.61;29.78;100461.16;1720967;83;20994;-87
2021/10/17 09:16:54;;;;;;;11.95;4.40;;;;;;;22.55;31.13;100469.20;1716580;83;21038;-87
2021/10/17 09:19:32;;;;;;;11.03;4.53;;;;;;;21.94;31.74;100461.04;1713728;83;21714;-88
2021/10/17 09:22:08;;;;;;;12.45;4.87;;;;;;;21.22;32.92;100464.45;1720886;83;21006;-87
2021/10/17 09:24:41;;;;;;;10.03;4.95;;;;;;;20.54;33.89;100460.08;1717352;83;21050;-87
2021/10/17 09:27:14;;;;;;;11.38;5.53;;;;;;;19.82;34.57;100467.45;1715261;83;21529;-86
2021/10/17 09:29:47;;;;;;;14.50;5.55;;;;;;;19.27;35.46;100459.22;1718997;83;21077;-87
2021/10/17 09:32:17;;;;;;;12.85;5.70;;;;;;;18.63;36.48;100462.55;1720886;83;21930;-87
2021/10/17 09:34:59;;;;;;;13.53;5.75;;;;;;;17.97;38.20;100461.91;1721882;82;21061;-85
2021/10/17 09:37:40;;;;;;;10.20;5.47;;;;;;;17.33;40.22;100466.19;1702319;83;21030;-88
2021/10/17 09:40:26;;;;;;;17.60;5.95;;;;;;;16.65;41.44;100460.39;1721729;83;21152;-79
2021/10/17 09:43:30;;;;;;;12.05;5.33;;;;;;;16.23;42.62;100462.72;1720028;83;21116;-85
2021/10/17 09:46:11;;;;;;;16.23;6.15;;;;;;;16.16;43.23;100456.03;1710189;82;21812;-81
2021/10/17 09:48:38;;;;;;;13.72;5.55;;;;;;;16.05;43.76;100453.95;1715208;82;21295;-84
2021/10/17 09:51:12;;;;;;;8.38;4.97;;;;;;;15.97;43.80;100449.55;1715529;83;21006;-80
2021/10/17 09:53:47;;;;;;;12.00;5.33;;;;;;;15.88;44.16;100448.23;1720364;83;21077;-82
2021/10/17 09:56:35;;;;;;;15.25;5.12;;;;;;;15.66;44.06;100450.28;1699420;83;21096;-83
2021/10/17 09:59:11;;;;;;;9.80;4.62;;;;;;;15.45;45.10;100441.66;1712881;83;21528;-83
2021/10/17 10:01:41;;;;;;;14.43;5.62;;;;;;;15.27;45.06;100451.42;1717842;83;21053;-84
2021/10/17 10:04:09;;;;;;;14.18;5.53;;;;;;;15.15;45.07;100446.28;1708624;83;22043;-83
2021/10/17 10:06:37;;;;;;;11.12;4.97;;;;;;;15.06;45.70;100450.25;1710491;83;21036;-83
2021/10/17 10:09:08;;;;;;;13.20;5.50;;;;;;;14.82;45.32;100446.20;1708430;82;21026;-84
2021/10/17 10:15:34;;;;;;;13.20;5.50;;;;;;;14.40;46.79;100458.78;1683993;85;21544;-84
2021/10/17 10:18:03;;;;;;;11.93;5.25;;;;;;;14.25;48.45;100455.05;1684331;84;21041;-83
2021/10/17 10:20:30;;;;;;;16.73;6.47;;;;;;;14.23;48.34;100448.11;1684528;85;21060;-84
2021/10/17 10:22:56;;;;;;;21.62;5.92;;;;;;;14.16;48.39;100450.66;1684765;84;21073;-83
2021/10/17 10:25:22;;;;;;;13.70;5.75;;;;;;;14.05;48.91;100449.34;1684447;84;21123;-84
2021/10/17 10:27:49;;;;;;;12.98;4.87;;;;;;;13.97;48.28;100442.24;1684927;85;21022;-82
2021/10/17 10:30:33;;;;;;;18.50;5.50;;;;;;;13.97;47.63;100444.89;1684862;85;21082;-83
2021/10/17 10:33:17;;;;;;;16.55;5.00;;;;;;;13.93;47.85;100445.95;1697723;82;21105;-84
2021/10/17 10:36:08;;;;;;;10.38;4.58;;;;;;;13.86;47.53;100444.52;1705256;82;21433;-84
2021/10/17 10:39:01;;;;;;;14.13;4.75;;;;;;;13.84;47.22;100445.90;1705584;82;21081;-83
2021/10/17 10:41:31;;;;;;;13.10;4.62;;;;;;;13.89;46.79;100444.37;1699401;83;21085;-81
2021/10/17 10:44:20;;;;;;;13.22;4.30;;;;;;;13.96;46.53;100445.80;1705420;82;21536;-83
2021/10/17 10:46:50;;;;;;;11.57;4.37;;;;;;;14.04;44.02;100440.17;1703289;83;20963;-84
2021/10/17 10:49:49;;;;;;;11.20;4.42;;;;;;;14.36;44.03;100437.33;1705133;82;21007;-84
2021/10/17 10:52:30;;;;;;;16.55;5.00;;;;;;;14.57;44.25;100433.29;1705115;84;21144;-84
2021/10/17 10:55:04;;;;;;;12.53;4.83;;;;;;;14.78;44.98;100428.72;1705350;84;21078;-82
2021/10/17 10:57:41;;;;;;;14.45;4.83;;;;;;;14.82;44.04;100425.84;1710783;83;21022;-83
2021/10/17 11:00:11;;;;;;;13.50;4.95;;;;;;;14.85;43.20;100420.37;1710718;83;21075;-83
2021/10/17 11:02:40;;;;;;;11.03;4.28;;;;;;;14.98;42.44;100422.43;1712243;83;22071;-83
2021/10/17 11:05:16;;;;;;;9.88;4.15;;;;;;;15.10;42.69;100419.98;1712856;83;21183;-84
2021/10/17 11:07:47;;;;;;;12.82;4.55;;;;;;;15.15;42.00;100422.41;1713586;82;21465;-83
2021/10/17 11:10:30;;;;;;;10.85;4.70;;;;;;;15.15;41.55;100412.27;1714126;83;28189;-83
2021/10/17 11:13:00;;;;;;;10.90;4.58;;;;;;;15.09;41.99;100414.75;1713816;83;21108;-82
2021/10/17 11:15:28;;;;;;;11.10;4.57;;;;;;;15.01;42.21;100411.66;1714152;83;21150;-83
2021/10/17 11:18:05;;;;;;;10.95;4.58;;;;;;;14.79;43.27;100416.72;1714450;82;21054;-82
2021/10/17 11:20:43;;;;;;;9.95;4.40;;;;;;;14.65;44.10;100409.90;1713980;82;21066;-84
2021/10/17 11:23:20;;;;;;;12.28;4.72;;;;;;;14.38;42.52;100412.95;1713992;83;21066;-83
2021/10/17 11:25:59;;;;;;;10.38;4.85;;;;;;;14.08;42.90;100402.47;1713904;83;21014;-83
2021/10/17 11:28:27;;;;;;;11.60;4.20;;;;;;;14.25;43.68;100411.34;1713757;83;21521;-84
2021/10/17 11:31:04;;;;;;;8.85;4.30;;;;;;;14.44;41.94;100411.30;1713783;83;21115;-83